createdAt,value
2018-11-02T00:00:46.276Z,5.30
2018-11-02T00:03:14.379Z,4.87
2018-11-02T00:05:42.480Z,6.50
2018-11-02T00:08:10.840Z,4.90
2018-11-02T00:10:39.201Z,4.60
2018-11-02T00:13:07.308Z,6.90
2018-11-02T00:15:35.395Z,16.83
2018-11-02T00:18:03.483Z,6.97
2018-11-02T00:20:31.583Z,6.17
2018-11-02T00:22:59.682Z,5.93
2018-11-02T00:25:28.055Z,8.83
2018-11-02T00:27:56.151Z,6.63
2018-11-02T00:30:24.263Z,6.07
2018-11-02T00:32:52.408Z,9.23
2018-11-02T00:35:20.493Z,8.27
2018-11-02T00:37:48.591Z,6.60
2018-11-02T00:40:16.687Z,8.00
2018-11-02T00:42:44.779Z,6.37
2018-11-02T00:45:12.897Z,5.70
2018-11-02T00:47:41.518Z,10.03
2018-11-02T00:50:11.042Z,7.70
2018-11-02T00:52:39.124Z,7.07
2018-11-02T00:55:07.697Z,7.50
2018-11-02T00:57:35.805Z,7.87
2018-11-02T01:00:03.916Z,7.40
2018-11-02T01:02:32.013Z,5.90
2018-11-02T01:05:00.130Z,7.00
2018-11-02T01:07:28.226Z,6.80
2018-11-02T01:09:56.331Z,7.23
2018-11-02T01:12:24.440Z,7.83
2018-11-02T01:14:52.549Z,6.43
2018-11-02T01:17:20.656Z,6.40
2018-11-02T01:19:48.760Z,9.90
2018-11-02T01:22:17.604Z,6.87
2018-11-02T01:24:45.717Z,8.67
2018-11-02T01:27:13.812Z,7.37
2018-11-02T01:29:42.017Z,7.43
2018-11-02T01:34:44.807Z,7.63
2018-11-02T01:37:12.912Z,6.33
2018-11-02T01:39:41.019Z,6.87
2018-11-02T01:42:09.158Z,7.07
2018-11-02T01:44:37.266Z,7.40
2018-11-02T01:47:05.692Z,6.50
2018-11-02T01:49:33.803Z,9.20
2018-11-02T01:52:01.939Z,7.00
2018-11-02T01:54:30.043Z,7.23
2018-11-02T01:56:58.219Z,6.63
2018-11-02T01:59:26.341Z,7.53
2018-11-02T02:01:54.499Z,8.23
2018-11-02T02:04:22.612Z,6.63
2018-11-02T02:06:50.707Z,7.63
2018-11-02T02:09:18.825Z,6.03
2018-11-02T02:11:46.929Z,7.33
2018-11-02T02:14:15.021Z,5.80
2018-11-02T02:16:43.145Z,5.77
2018-11-02T02:19:11.247Z,6.30
2018-11-02T02:21:39.369Z,6.07
2018-11-02T02:24:07.505Z,6.17
2018-11-02T02:26:35.607Z,6.00
2018-11-02T02:29:03.712Z,7.90
2018-11-02T02:31:31.832Z,6.50
2018-11-02T02:33:59.948Z,6.33
2018-11-02T02:36:28.072Z,7.30
2018-11-02T02:38:56.189Z,5.43
2018-11-02T02:41:24.325Z,7.07
2018-11-02T02:43:52.616Z,5.97
2018-11-02T02:46:20.717Z,6.87
2018-11-02T02:48:48.829Z,6.20
2018-11-02T02:51:16.937Z,8.13
2018-11-02T02:53:45.071Z,6.20
2018-11-02T02:56:13.187Z,7.13
2018-11-02T02:58:41.329Z,6.93
2018-11-02T03:01:09.432Z,5.97
2018-11-02T03:03:37.534Z,6.60
2018-11-02T03:06:05.673Z,10.40
2018-11-02T03:08:34.143Z,8.07
2018-11-02T03:11:03.662Z,7.07
2018-11-02T03:13:33.108Z,7.00
2018-11-02T03:16:01.299Z,6.37
2018-11-02T03:18:29.427Z,6.60
2018-11-02T03:20:57.503Z,6.90
2018-11-02T03:23:25.600Z,8.13
2018-11-02T03:25:53.691Z,8.30
2018-11-02T03:28:21.791Z,7.30
2018-11-02T03:30:49.903Z,7.10
2018-11-02T03:33:18.000Z,6.53
2018-11-02T03:35:46.109Z,5.90
2018-11-02T03:38:14.225Z,6.53
2018-11-02T03:40:42.323Z,6.10
2018-11-02T03:43:10.428Z,8.00
2018-11-02T03:45:38.536Z,6.47
2018-11-02T03:48:06.687Z,6.60
2018-11-02T03:50:34.791Z,5.60
2018-11-02T03:53:03.044Z,6.10
2018-11-02T03:55:31.158Z,5.60
2018-11-02T03:57:59.244Z,5.00
2018-11-02T04:00:27.817Z,5.27
2018-11-02T04:02:55.928Z,5.60
2018-11-02T04:05:24.030Z,6.33
2018-11-02T04:07:52.144Z,5.30
2018-11-02T04:10:20.235Z,6.23
2018-11-02T04:12:48.333Z,5.23
2018-11-02T04:15:16.440Z,4.80
2018-11-02T04:17:44.557Z,5.83
2018-11-02T04:20:12.636Z,6.07
2018-11-02T04:22:40.735Z,5.87
2018-11-02T04:25:08.864Z,5.70
2018-11-02T04:27:36.962Z,6.17
2018-11-02T04:30:05.815Z,6.13
2018-11-02T04:32:33.916Z,7.10
2018-11-02T04:35:02.023Z,6.27
2018-11-02T04:37:30.152Z,7.33
2018-11-02T04:39:58.244Z,6.20
2018-11-02T04:42:26.356Z,6.90
2018-11-02T04:44:54.456Z,6.20
2018-11-02T04:47:22.567Z,6.27
2018-11-02T04:49:50.665Z,6.67
2018-11-02T04:52:18.772Z,6.07
2018-11-02T04:54:47.128Z,6.70
2018-11-02T04:57:15.210Z,9.23
2018-11-02T04:59:43.307Z,6.37
2018-11-02T05:02:11.451Z,8.00
2018-11-02T05:04:39.649Z,10.50
2018-11-02T05:07:07.753Z,6.07
2018-11-02T05:09:35.870Z,7.03
2018-11-02T05:12:03.968Z,6.23
2018-11-02T05:14:32.073Z,7.00
2018-11-02T05:17:00.175Z,6.83
2018-11-02T05:19:28.284Z,5.60
2018-11-02T05:21:56.391Z,7.30
2018-11-02T05:24:24.488Z,5.77
2018-11-02T05:26:52.580Z,5.80
2018-11-02T05:29:20.684Z,7.63
2018-11-02T05:31:48.784Z,6.50
2018-11-02T05:34:17.315Z,6.87
2018-11-02T05:36:45.427Z,7.30
2018-11-02T05:39:13.804Z,7.10
2018-11-02T05:41:41.884Z,5.30
2018-11-02T05:44:09.986Z,5.00
2018-11-02T05:46:38.109Z,6.63
2018-11-02T05:49:06.222Z,7.30
2018-11-02T05:51:34.424Z,6.07
2018-11-02T05:54:02.613Z,6.37
2018-11-02T05:56:30.664Z,5.50
2018-11-02T05:58:58.820Z,5.50
2018-11-02T06:01:27.046Z,5.40
2018-11-02T06:03:55.050Z,4.57
2018-11-02T06:06:23.161Z,6.03
2018-11-02T06:08:51.263Z,5.50
2018-11-02T06:11:19.344Z,5.40
2018-11-02T06:13:47.446Z,4.30
2018-11-02T06:16:15.543Z,4.30
2018-11-02T06:18:44.180Z,4.50
2018-11-02T06:21:12.271Z,4.83
2018-11-02T06:23:40.433Z,4.53
2018-11-02T06:26:08.545Z,4.23
2018-11-02T06:28:36.656Z,4.17
2018-11-02T06:31:05.020Z,5.10
2018-11-02T06:33:33.123Z,3.90
2018-11-02T06:36:01.217Z,5.10
2018-11-02T06:38:29.393Z,6.10
2018-11-02T06:40:57.443Z,4.63
2018-11-02T06:43:25.551Z,4.60
2018-11-02T06:45:53.747Z,4.23
2018-11-02T06:48:21.816Z,3.73
2018-11-02T06:50:49.923Z,4.67
2018-11-02T06:53:18.052Z,3.63
2018-11-02T06:55:46.170Z,3.90
2018-11-02T06:58:14.283Z,4.83
2018-11-02T07:00:42.388Z,3.40
2018-11-02T07:03:10.507Z,3.97
2018-11-02T07:05:38.613Z,4.77
2018-11-02T07:08:06.982Z,3.97
2018-11-02T07:10:34.970Z,4.17
2018-11-02T07:13:03.066Z,4.40
2018-11-02T07:15:31.160Z,4.50
2018-11-02T07:17:59.264Z,4.17
2018-11-02T07:20:27.351Z,6.70
2018-11-02T07:22:55.492Z,4.33
2018-11-02T07:25:23.697Z,3.93
2018-11-02T07:27:51.696Z,3.30
2018-11-02T07:30:19.793Z,3.87
2018-11-02T07:32:47.897Z,3.40
2018-11-02T07:35:15.996Z,3.90
2018-11-02T07:37:44.095Z,4.90
2018-11-02T07:40:12.396Z,3.53
2018-11-02T07:42:40.774Z,3.33
2018-11-02T07:45:09.300Z,6.53
2018-11-02T07:47:37.434Z,2.90
2018-11-02T07:50:07.517Z,3.57
2018-11-02T07:52:35.635Z,3.90
2018-11-02T07:55:03.783Z,3.47
2018-11-02T07:57:31.886Z,3.73
2018-11-02T07:59:59.997Z,3.43
2018-11-02T08:02:28.100Z,3.27
2018-11-02T08:04:56.213Z,3.77
2018-11-02T08:07:24.301Z,3.53
2018-11-02T08:09:52.409Z,4.93
2018-11-02T08:12:20.514Z,3.60
2018-11-02T08:14:48.632Z,2.73
2018-11-02T08:17:16.733Z,2.30
2018-11-02T08:19:44.833Z,4.27
2018-11-02T08:22:12.923Z,3.07
2018-11-02T08:24:41.066Z,5.57
2018-11-02T08:27:09.172Z,2.70
2018-11-02T08:29:37.266Z,3.37
2018-11-02T08:32:05.523Z,3.27
2018-11-02T08:34:33.583Z,3.30
2018-11-02T08:37:01.676Z,3.90
2018-11-02T08:39:29.783Z,2.77
2018-11-02T08:41:57.903Z,3.90
2018-11-02T08:44:26.019Z,3.00
2018-11-02T08:46:54.103Z,3.10
2018-11-02T08:49:22.199Z,3.20
2018-11-02T08:51:50.313Z,3.03
2018-11-02T08:54:18.421Z,8.27
2018-11-02T08:56:46.620Z,4.20
2018-11-02T08:59:14.819Z,3.37
2018-11-02T09:01:42.840Z,10.40
2018-11-02T09:04:10.960Z,4.37
2018-11-02T09:06:39.053Z,3.67
2018-11-02T09:09:07.750Z,3.73
2018-11-02T09:11:35.844Z,3.40
2018-11-02T09:14:04.117Z,4.00
2018-11-02T09:16:32.242Z,5.70
2018-11-02T09:19:00.376Z,3.90
2018-11-02T09:21:28.717Z,5.30
2018-11-02T09:23:56.672Z,2.63
2018-11-02T09:26:24.941Z,3.03
2018-11-02T09:28:53.127Z,4.30
2018-11-02T09:31:21.274Z,3.43
2018-11-02T09:33:49.383Z,3.10
2018-11-02T09:36:17.478Z,2.83
2018-11-02T09:38:45.599Z,3.23
2018-11-02T09:41:13.725Z,4.67
2018-11-02T09:43:41.808Z,3.20
2018-11-02T09:46:09.908Z,3.20
2018-11-02T09:48:38.024Z,3.50
2018-11-02T09:51:06.135Z,3.40
2018-11-02T09:53:34.227Z,3.60
2018-11-02T09:56:02.329Z,3.20
2018-11-02T09:58:30.760Z,3.17
2018-11-02T10:00:58.891Z,3.20
2018-11-02T10:03:27.002Z,3.40
2018-11-02T10:05:55.098Z,4.10
2018-11-02T10:08:23.192Z,3.40
2018-11-02T10:10:51.288Z,3.00
2018-11-02T10:13:19.391Z,2.63
2018-11-02T10:15:47.480Z,2.73
2018-11-02T10:18:15.580Z,3.27
2018-11-02T10:20:43.674Z,2.43
2018-11-02T10:23:11.777Z,3.50
2018-11-02T10:25:39.900Z,3.70
2018-11-02T10:28:08.038Z,4.13
2018-11-02T10:30:36.130Z,3.40
2018-11-02T10:33:04.241Z,4.60
2018-11-02T10:35:32.466Z,5.77
2018-11-02T10:38:01.192Z,2.67
2018-11-02T10:40:31.267Z,3.67
2018-11-02T10:43:02.310Z,3.90
2018-11-02T10:45:36.305Z,3.80
2018-11-02T10:48:05.886Z,3.83
2018-11-02T10:50:33.991Z,6.00
2018-11-02T10:53:02.238Z,2.63
2018-11-02T10:55:30.386Z,5.97
2018-11-02T10:57:58.560Z,3.40
2018-11-02T11:00:32.177Z,4.70
2018-11-02T11:03:00.280Z,3.23
2018-11-02T11:05:28.577Z,2.50
2018-11-02T11:07:56.710Z,3.87
2018-11-02T11:10:24.799Z,2.37
2018-11-02T11:12:53.204Z,2.53
2018-11-02T11:15:21.047Z,3.30
2018-11-02T11:17:49.161Z,2.40
2018-11-02T11:20:17.263Z,2.70
2018-11-02T11:22:45.368Z,3.33
2018-11-02T11:25:14.872Z,2.80
2018-11-02T11:27:42.964Z,2.03
2018-11-02T11:30:14.493Z,2.63
2018-11-02T11:32:42.595Z,2.67
2018-11-02T11:35:12.579Z,2.00
2018-11-02T11:37:41.288Z,2.10
2018-11-02T11:40:11.496Z,14.30
2018-11-02T11:42:39.876Z,9.07
2018-11-02T11:45:09.423Z,1.77
2018-11-02T11:47:37.864Z,3.07
2018-11-02T11:50:10.632Z,1.97
2018-11-02T11:52:38.713Z,7.83
2018-11-02T11:55:08.264Z,7.53
2018-11-02T11:57:36.388Z,2.33
2018-11-02T12:00:05.645Z,4.50
2018-11-02T12:02:33.768Z,8.87
2018-11-02T12:05:02.026Z,3.20
2018-11-02T12:07:30.012Z,2.97
2018-11-02T12:09:58.500Z,15.03
2018-11-02T12:12:27.102Z,12.40
2018-11-02T12:14:55.192Z,3.00
2018-11-02T12:17:23.287Z,4.93
2018-11-02T12:19:51.399Z,4.90
2018-11-02T12:22:19.497Z,3.77
2018-11-02T12:24:47.624Z,3.30
2018-11-02T12:27:15.744Z,2.90
2018-11-02T12:29:43.861Z,4.33
2018-11-02T12:32:11.960Z,5.13
2018-11-02T12:34:40.062Z,8.83
2018-11-02T12:37:08.222Z,5.90
2018-11-02T12:39:36.363Z,7.17
2018-11-02T12:42:04.459Z,7.13
2018-11-02T12:44:32.570Z,6.93
2018-11-02T12:47:00.662Z,2.63
2018-11-02T12:49:30.220Z,2.80
2018-11-02T12:51:57.919Z,3.67
2018-11-02T12:54:26.024Z,4.50
2018-11-02T12:56:54.112Z,2.53
2018-11-02T12:59:22.219Z,3.30
2018-11-02T13:01:50.312Z,2.40
2018-11-02T13:04:18.416Z,2.47
2018-11-02T13:06:46.517Z,2.17
2018-11-02T13:09:14.635Z,3.33
2018-11-02T13:11:42.714Z,2.40
2018-11-02T13:14:10.825Z,3.07
2018-11-02T13:16:38.924Z,2.63
2018-11-02T13:19:07.025Z,2.80
2018-11-02T13:21:35.186Z,3.40
2018-11-02T13:24:03.242Z,3.60
2018-11-02T13:26:31.360Z,3.27
2018-11-02T13:28:59.455Z,3.37
2018-11-02T13:31:27.556Z,3.37
2018-11-02T13:33:55.643Z,3.23
2018-11-02T13:36:23.864Z,3.30
2018-11-02T13:38:51.879Z,4.80
2018-11-02T13:41:19.979Z,5.27
2018-11-02T13:43:48.104Z,3.57
2018-11-02T13:46:16.183Z,3.93
2018-11-02T13:48:44.292Z,3.73
2018-11-02T13:51:12.401Z,3.83
2018-11-02T13:53:40.618Z,3.30
2018-11-02T13:56:08.682Z,4.60
2018-11-02T13:58:36.841Z,3.60
2018-11-02T14:01:05.387Z,3.43
2018-11-02T14:03:33.482Z,3.97
2018-11-02T14:06:01.588Z,3.57
2018-11-02T14:08:29.690Z,4.80
2018-11-02T14:10:57.783Z,3.33
2018-11-02T14:13:25.888Z,2.90
2018-11-02T14:15:54.009Z,3.23
2018-11-02T14:18:22.120Z,3.40
2018-11-02T14:20:50.232Z,3.07
2018-11-02T14:23:18.323Z,3.07
2018-11-02T14:25:46.479Z,2.97
2018-11-02T14:28:14.609Z,3.27
2018-11-02T14:30:42.725Z,3.10
2018-11-02T14:33:10.829Z,3.17
2018-11-02T14:35:38.953Z,4.30
2018-11-02T14:38:07.077Z,4.00
2018-11-02T14:40:35.190Z,6.60
2018-11-02T14:43:03.276Z,3.57
2018-11-02T14:45:31.391Z,2.60
2018-11-02T14:47:59.513Z,2.60
2018-11-02T14:50:27.621Z,2.80
2018-11-02T14:52:55.725Z,2.93
2018-11-02T14:55:23.844Z,5.63
2018-11-02T14:57:51.959Z,2.70
2018-11-02T15:00:20.068Z,3.30
2018-11-02T15:02:48.227Z,3.20
2018-11-02T15:05:16.329Z,4.67
2018-11-02T15:07:44.554Z,3.13
2018-11-02T15:10:12.672Z,2.80
2018-11-02T15:12:40.773Z,2.80
2018-11-02T15:15:09.388Z,2.37
2018-11-02T15:17:37.667Z,3.03
2018-11-02T15:20:08.144Z,3.73
2018-11-02T15:22:37.123Z,5.10
2018-11-02T15:25:05.470Z,2.43
2018-11-02T15:27:33.588Z,3.20
2018-11-02T15:30:01.708Z,3.50
2018-11-02T15:32:29.855Z,3.10
2018-11-02T15:34:58.011Z,3.03
2018-11-02T15:37:26.152Z,2.53
2018-11-02T15:39:54.261Z,2.67
2018-11-02T15:42:22.384Z,3.30
2018-11-02T15:44:50.637Z,3.13
2018-11-02T15:47:18.622Z,4.90
2018-11-02T15:49:46.724Z,5.63
2018-11-02T15:52:14.845Z,3.63
2018-11-02T15:54:42.971Z,4.20
2018-11-02T15:57:11.086Z,3.13
2018-11-02T15:59:39.204Z,4.07
2018-11-02T16:02:07.488Z,3.13
2018-11-02T16:04:35.568Z,6.90
2018-11-02T16:07:03.720Z,4.90
2018-11-02T16:09:31.759Z,3.80
2018-11-02T16:11:59.880Z,3.17
2018-11-02T16:14:28.093Z,3.20
2018-11-02T16:16:56.188Z,5.10
2018-11-02T16:19:24.401Z,4.17
2018-11-02T16:21:52.437Z,3.73
2018-11-02T16:24:20.593Z,3.40
2018-11-02T16:26:48.687Z,4.10
2018-11-02T16:29:16.817Z,3.53
2018-11-02T16:31:44.877Z,3.20
2018-11-02T16:34:13.067Z,4.10
2018-11-02T16:36:41.201Z,4.13
2018-11-02T16:39:10.713Z,3.47
2018-11-02T16:41:39.194Z,3.37
2018-11-02T16:44:07.589Z,3.03
2018-11-02T16:46:35.667Z,3.90
2018-11-02T16:49:03.750Z,6.73
2018-11-02T16:51:31.910Z,3.67
2018-11-02T16:54:00.182Z,3.53
2018-11-02T16:56:28.397Z,6.10
2018-11-02T16:58:56.440Z,5.80
2018-11-02T17:01:24.541Z,3.17
2018-11-02T17:03:52.637Z,4.03
2018-11-02T17:06:20.714Z,4.00
2018-11-02T17:08:48.820Z,6.10
2018-11-02T17:11:16.924Z,3.90
2018-11-02T17:13:46.783Z,4.90
2018-11-02T17:16:14.875Z,2.87
2018-11-02T17:18:42.980Z,3.63
2018-11-02T17:21:11.160Z,3.50
2018-11-02T17:23:39.221Z,5.80
2018-11-02T17:26:07.565Z,2.67
2018-11-02T17:28:35.682Z,5.93
2018-11-02T17:31:03.803Z,3.50
2018-11-02T17:33:31.925Z,4.40
2018-11-02T17:36:00.033Z,4.03
2018-11-02T17:38:28.145Z,4.80
2018-11-02T17:40:56.252Z,3.50
2018-11-02T17:43:24.342Z,3.37
2018-11-02T17:45:52.446Z,3.43
2018-11-02T17:48:20.568Z,3.97
2018-11-02T17:50:48.713Z,4.03
2018-11-02T17:53:16.868Z,4.60
2018-11-02T17:55:44.987Z,6.83
2018-11-02T17:58:13.130Z,4.27
2018-11-02T18:00:41.251Z,5.50
2018-11-02T18:03:09.941Z,4.90
2018-11-02T18:05:38.079Z,5.43
2018-11-02T18:08:06.239Z,6.87
2018-11-02T18:10:34.355Z,7.70
2018-11-02T18:13:02.502Z,4.40
2018-11-02T18:15:30.629Z,6.10
2018-11-02T18:17:58.759Z,5.10
2018-11-02T18:20:26.890Z,15.20
2018-11-02T18:22:55.027Z,5.90
2018-11-02T18:25:23.160Z,5.80
2018-11-02T18:27:51.270Z,6.57
2018-11-02T18:30:19.401Z,8.30
2018-11-02T18:32:47.526Z,10.47
2018-11-02T18:35:15.709Z,15.33
2018-11-02T18:37:43.820Z,8.40
2018-11-02T18:40:13.142Z,13.73
2018-11-02T18:42:41.610Z,8.37
2018-11-02T18:45:11.331Z,10.53
2018-11-02T18:47:47.952Z,8.53
2018-11-02T18:50:18.174Z,10.30
2018-11-02T18:52:46.974Z,7.63
2018-11-02T18:55:15.195Z,9.10
2018-11-02T18:57:43.387Z,7.03
2018-11-02T19:00:12.029Z,7.93
2018-11-02T19:02:40.337Z,9.00
2018-11-02T19:05:10.452Z,6.57
2018-11-02T19:07:38.731Z,8.47
2018-11-02T19:10:07.712Z,6.93
2018-11-02T19:12:36.004Z,7.90
2018-11-02T19:15:04.708Z,6.97
2018-11-02T19:17:32.840Z,7.00
2018-11-02T19:20:01.094Z,6.90
2018-11-02T19:22:29.105Z,8.03
2018-11-02T19:24:57.213Z,7.60
2018-11-02T19:27:25.429Z,11.30
2018-11-02T19:29:53.600Z,11.40
2018-11-02T19:32:21.916Z,7.70
2018-11-02T19:34:50.222Z,8.00
2018-11-02T19:37:18.165Z,8.77
2018-11-02T19:39:46.283Z,8.33
2018-11-02T19:42:14.417Z,8.80
2018-11-02T19:44:42.537Z,6.90
2018-11-02T19:47:10.689Z,8.50
2018-11-02T19:49:38.788Z,10.53
2018-11-02T19:52:06.914Z,8.47
2018-11-02T19:54:35.039Z,9.50
2018-11-02T19:57:03.217Z,13.40
2018-11-02T19:59:31.356Z,9.83
2018-11-02T20:01:59.544Z,9.60
2018-11-02T20:04:27.681Z,8.70
2018-11-02T20:06:55.811Z,10.47
2018-11-02T20:09:23.978Z,9.20
2018-11-02T20:11:52.075Z,11.67
2018-11-02T20:14:20.206Z,12.27
2018-11-02T20:16:48.313Z,8.70
2018-11-02T20:19:16.556Z,8.20
2018-11-02T20:24:37.797Z,11.77
2018-11-02T20:27:06.133Z,10.70
2018-11-02T20:29:34.268Z,10.53
2018-11-02T20:32:02.491Z,12.40
2018-11-02T20:34:30.556Z,11.93
2018-11-02T20:36:58.673Z,10.07
2018-11-02T20:39:27.000Z,10.53
2018-11-02T20:41:55.029Z,10.50
2018-11-02T20:44:23.201Z,11.80
2018-11-02T20:46:51.342Z,11.93
2018-11-02T20:49:19.477Z,12.03
2018-11-02T20:51:47.625Z,12.63
2018-11-02T20:54:15.757Z,12.77
2018-11-02T20:56:43.903Z,12.50
2018-11-02T20:59:12.040Z,11.77
2018-11-02T21:01:40.183Z,14.43
2018-11-02T21:04:08.297Z,15.13
2018-11-02T21:06:36.397Z,11.80
2018-11-02T21:09:06.520Z,11.93
2018-11-02T21:11:34.524Z,13.50
2018-11-02T21:14:02.685Z,11.37
2018-11-02T21:16:30.677Z,12.07
2018-11-02T21:18:59.273Z,12.10
2018-11-02T21:21:27.369Z,12.30
2018-11-02T21:23:55.543Z,13.57
2018-11-02T21:26:23.659Z,12.40
2018-11-02T21:28:51.829Z,15.30
2018-11-02T21:31:19.973Z,13.33
2018-11-02T21:33:48.140Z,12.00
2018-11-02T21:36:16.338Z,15.43
2018-11-02T21:38:44.531Z,13.83
2018-11-02T21:41:12.662Z,13.20
2018-11-02T21:43:40.746Z,13.10
2018-11-02T21:46:08.887Z,11.80
2018-11-02T21:48:37.022Z,12.30
2018-11-02T21:51:05.452Z,13.37
2018-11-02T21:53:33.596Z,12.93
2018-11-02T21:56:01.678Z,13.43
2018-11-02T21:58:29.811Z,14.10
2018-11-02T22:00:57.964Z,14.10
2018-11-02T22:03:26.078Z,12.63
2018-11-02T22:05:54.231Z,14.73
2018-11-02T22:08:22.289Z,14.13
2018-11-02T22:10:50.440Z,13.60
2018-11-02T22:13:18.532Z,14.60
2018-11-02T22:15:46.648Z,14.03
2018-11-02T22:18:14.750Z,15.30
2018-11-02T22:20:43.059Z,13.83
2018-11-02T22:23:11.331Z,12.60
2018-11-02T22:25:39.448Z,12.60
2018-11-02T22:28:07.555Z,10.70
2018-11-02T22:30:35.660Z,12.03
2018-11-02T22:33:03.787Z,12.10
2018-11-02T22:35:31.889Z,12.30
2018-11-02T22:37:59.992Z,12.57
2018-11-02T22:40:28.113Z,10.87
2018-11-02T22:42:56.224Z,14.17
2018-11-02T22:45:24.286Z,13.47
2018-11-02T22:47:57.715Z,12.10
2018-11-02T22:50:25.817Z,12.70
2018-11-02T22:52:53.908Z,14.23
2018-11-02T22:55:22.051Z,13.33
2018-11-02T22:57:50.084Z,12.37
2018-11-02T23:00:19.025Z,12.43
2018-11-02T23:02:47.752Z,12.00
2018-11-02T23:05:15.858Z,16.43
2018-11-02T23:07:44.447Z,13.10
2018-11-02T23:10:12.739Z,12.13
2018-11-02T23:12:41.521Z,11.60
2018-11-02T23:15:10.468Z,13.10
2018-11-02T23:17:38.789Z,11.37
2018-11-02T23:20:08.893Z,14.37
2018-11-02T23:22:36.999Z,13.37
2018-11-02T23:25:06.149Z,12.37
2018-11-02T23:27:34.223Z,13.03
2018-11-02T23:30:02.384Z,14.03
2018-11-02T23:32:30.402Z,12.33
2018-11-02T23:34:58.547Z,14.83
2018-11-02T23:37:26.667Z,12.73
2018-11-02T23:39:54.779Z,14.40
2018-11-02T23:42:22.861Z,14.07
2018-11-02T23:44:50.990Z,14.27
2018-11-02T23:47:19.093Z,12.53
2018-11-02T23:49:47.188Z,12.43
2018-11-02T23:52:15.295Z,13.53
2018-11-02T23:54:43.371Z,13.53
2018-11-02T23:57:11.506Z,14.97
2018-11-02T23:59:39.596Z,17.53
